TRINITY LAKE (CLE)

Elevation: 2370' · TRINITY R basin · Operator: US Bureau of Reclamation

Provisional data, subject to change.
Query executed Sunday at 22:06:38   clock

Select a sensor type for a plot of data.
Note: Reservoir Flows are daily averages.

Earlier

Date RES ELE    STORAGE    RES CHG    OUTFLOW    INFLOW    EVAP    FNF    RIV REL    PPT INC    SPILL    DIS PWR   
 FEET   AF   AF   CFS   CFS   CFS   CFS   CFS   INCHES   CFS   CFS  
03/27/2015 2274.72 1185422 703 489 917 74 917 0 0.00 0 489
03/28/2015 2274.89 1187131 1709 245 1163 56 1163 0 0.00 0 245
03/29/2015 2275.03 1188539 1408 294 1054 50 1060 0 0.00 0 294
03/30/2015 2275.14 1189652 1113 298 904 45 915 0 0.00 0 298
03/31/2015 2275.25 1190765 1113 223 820 36 820 0 0.00 0 223
04/01/2015 2275.34 1191675 910 330 857 68 857 0 0.00 0 330
04/02/2015 2275.43 1192585 910 330 834 45 834 0 0.00 0 330
04/03/2015 2275.43 1192585 0 718 763 45 763 0 0.00 0 718
04/04/2015 2275.44 1192686 101 574 667 42 667 0 0.00 0 574
04/05/2015 2275.50 1193293 607 470 818 42 818 0 0.00 0 470
04/06/2015 2275.55 1193799 506 636 906 15 906 0 0.16 0 636
04/07/2015 2275.69 1195215 1416 489 1221 18 1221 0 0.62 0 489
04/08/2015 2275.74 1195720 505 619 889 15 889 0 0.23 0 619
04/09/2015 2275.81 1196428 708 551 908 0 908 0 0.00 0 551
04/10/2015 2275.87 1197035 607 509 848 33 848 0 0.00 0 509
04/11/2015 2275.97 1198047 1012 338 896 48 896 0 0.00 0 338
04/12/2015 2276.12 1199571 -- 247 1057 42 975 e 0 0.00 0 247
04/13/2015 2276.22 1200589 1018 328 892 51 975 e 0 0.00 0 328
04/14/2015 2276.28 1201200 611 769 1149 72 1053 e 0 0.00 0 769
04/15/2015 2276.28 1201200 0 905 956 51 1053 e 0 0.00 0 905
04/16/2015 2276.32 1201607 407 748 1007 54 1007 0 0.00 0 748
04/17/2015 2276.34 1201811 204 899 1068 66 1068 0 0.00 0 899
04/18/2015 2276.36 1202014 203 939 1098 57 1098 0 0.00 0 939
04/19/2015 2276.31 1201505 -509 1272 1087 72 1087 0 0.00 0 1272
04/20/2015 2276.28 1201200 -305 1139 1054 69 1054 0 0.00 0 1139
04/21/2015 2276.18 1200182 -1018 1367 917 63 917 0 0.00 0 1367
04/22/2015 2276.04 1198757 -1425 1641 983 60 983 0 0.00 0 1641
04/23/2015 2275.89 1197237 -1520 1590 893 69 893 0 0.02 0 1590
04/24/2015 2275.76 1195923 -1314 1517 918 63 -- 0 0.02 0 1517
04/25/2015 2275.60 1194304 -1619 1562 797 51 -- 0 0.00 0 1562
04/26/2015 -- -- -- -- -- -- -- -- -- -- --

Later | Latest

Warning! This data is preliminary and subject to revision.

Show CLE Map | Plot CLE Data | 1 Month CLE Data | Real-Time CLE Data | CLE Info